Terminal Aerodrome Forecast
Issued by NWS

Home | Current Version | Previous Version | Text Only | Print | Product List | Glossary On
Versions: 1 2 3 4 5 6 7 8 9 10 11 12 13 14 15 16 17 18 19 20 21
000
FTUS41 KBOX 270540
TAFBED
TAF
KBED 270540Z 2706/2806 VRB03KT P6SM SCT120
     FM271900 17007KT P6SM BKN070
     FM272200 20009KT P6SM SCT200
     FM280500 22005KT P6SM SCT100=

USA.gov is the U.S. government's official web portal to all federal, state and local government web resources and services.